Time;durP1;ratioP1;P1;durP2;ratioP2;P2;SDS_P1;SDS_P2;PMS_P1;PMS_P2;Temp;Humidity;BMP_temperature;BMP_pressure;BME280_temperature;BME280_humidity;BME280_pressure;Samples;Min_cycle;Max_cycle;Signal;HPM_P1;HPM_P2
2023/03/03 02:52:16;;;;;;;54.70;27.20;;;;;;;1.31;80.25;99361.92;106963;1302;546016;-39
2023/03/03 02:54:42;;;;;;;53.30;25.90;;;;;;;1.27;80.33;99363.38;107352;1313;22928;-41
2023/03/03 02:57:07;;;;;;;55.60;26.90;;;;;;;1.22;80.46;99364.34;107353;1313;22425;-41
2023/03/03 02:59:33;;;;;;;52.40;25.10;;;;;;;1.24;80.52;99363.79;107354;1313;22419;-40
2023/03/03 03:01:59;;;;;;;53.50;26.70;;;;;;;1.19;80.88;99363.69;107301;1312;22253;-41
2023/03/03 03:04:26;;;;;;;51.70;26.50;;;;;;;1.20;80.82;99360.73;107359;1312;22243;-40
2023/03/03 03:06:52;;;;;;;56.90;27.40;;;;;;;1.18;81.14;99363.19;107525;1308;128201;-41
2023/03/03 03:09:20;;;;;;;53.70;26.10;;;;;;;1.16;81.07;99362.87;107652;1310;22456;-40
2023/03/03 03:11:46;;;;;;;54.90;25.80;;;;;;;1.14;81.11;99358.77;107624;1310;23208;-40
2023/03/03 03:14:12;;;;;;;55.40;25.80;;;;;;;1.11;80.45;99364.14;107829;1308;22915;-41
2023/03/03 03:16:38;;;;;;;53.10;26.40;;;;;;;1.04;80.37;99361.16;107826;1307;22236;-41
2023/03/03 03:19:04;;;;;;;58.40;26.90;;;;;;;1.05;80.38;99364.24;107157;1308;22638;-39
2023/03/03 03:21:30;;;;;;;51.30;26.00;;;;;;;1.02;80.02;99356.02;107855;1305;22249;-41
2023/03/03 03:23:55;;;;;;;49.70;24.80;;;;;;;0.99;80.05;99356.75;108002;1307;22475;-42
2023/03/03 03:26:21;;;;;;;56.90;26.40;;;;;;;1.00;80.21;99365.71;108004;1307;22257;-41
2023/03/03 03:28:47;;;;;;;53.00;25.70;;;;;;;1.06;80.09;99369.05;107989;1307;23083;-41
2023/03/03 03:31:14;;;;;;;53.10;25.30;;;;;;;1.04;80.07;99372.20;107981;1307;22220;-41
2023/03/03 03:33:39;;;;;;;50.00;24.20;;;;;;;1.01;80.23;99364.30;108008;1307;22230;-40
2023/03/03 03:36:05;;;;;;;56.30;25.80;;;;;;;1.11;80.23;99365.72;108018;1307;22218;-40
2023/03/03 03:38:32;;;;;;;55.10;25.90;;;;;;;1.16;80.18;99365.82;108017;1307;22978;-40
2023/03/03 03:40:58;;;;;;;51.40;25.80;;;;;;;1.19;79.97;99364.71;108004;1307;22252;-40
2023/03/03 03:43:24;;;;;;;59.00;27.50;;;;;;;1.21;80.02;99366.77;108007;1307;22329;-41
2023/03/03 03:45:49;;;;;;;56.70;25.50;;;;;;;1.22;79.91;99373.15;108038;1307;22973;-41
2023/03/03 03:48:16;;;;;;;51.30;25.90;;;;;;;1.26;79.84;99381.19;108001;1307;22937;-40
2023/03/03 03:50:41;;;;;;;53.90;25.70;;;;;;;1.28;79.89;99386.34;108004;1307;22217;-41
2023/03/03 03:53:08;;;;;;;54.70;26.00;;;;;;;1.09;80.36;99385.94;108024;1307;22965;-40
2023/03/03 03:55:33;;;;;;;59.60;28.50;;;;;;;1.06;80.80;99379.42;108010;1307;22394;-41
2023/03/03 03:57:59;;;;;;;58.80;27.30;;;;;;;1.08;80.59;99376.45;108017;1307;22205;-40
2023/03/03 04:00:24;;;;;;;60.70;27.00;;;;;;;1.00;80.13;99373.32;108023;1307;23034;-41
2023/03/03 04:02:50;;;;;;;53.60;25.80;;;;;;;0.85;80.90;99375.94;108007;1307;22307;-40
2023/03/03 04:05:16;;;;;;;51.50;26.60;;;;;;;0.88;80.75;99375.20;107996;1307;22212;-43
2023/03/03 04:07:42;;;;;;;49.30;24.90;;;;;;;0.86;80.24;99370.91;107991;1307;22394;-41
2023/03/03 04:10:08;;;;;;;50.90;25.90;;;;;;;0.83;80.14;99364.59;107985;1307;22246;-40
2023/03/03 04:12:37;;;;;;;51.80;24.70;;;;;;;0.83;79.87;99361.48;108004;1307;22243;-41
2023/03/03 04:15:08;;;;;;;52.70;25.30;;;;;;;0.69;80.32;99358.56;108014;1307;22204;-41
2023/03/03 04:17:35;;;;;;;53.10;27.10;;;;;;;0.62;80.98;99354.35;107995;1307;22229;-41
2023/03/03 04:20:01;;;;;;;52.40;26.20;;;;;;;0.67;80.98;99348.75;108001;1307;22471;-42
2023/03/03 04:22:27;;;;;;;54.50;26.90;;;;;;;0.72;80.82;99336.27;107994;1307;22216;-41
2023/03/03 04:24:52;;;;;;;54.00;26.10;;;;;;;0.72;81.28;99331.23;107750;1307;23027;-41
2023/03/03 04:27:17;;;;;;;59.40;26.50;;;;;;;0.79;81.21;99331.67;107985;1307;23022;-41
2023/03/03 04:29:43;;;;;;;52.30;27.30;;;;;;;0.74;81.26;99323.80;107999;1307;22219;-41
2023/03/03 04:32:08;;;;;;;55.60;27.30;;;;;;;0.73;81.32;99318.48;108005;1307;22305;-41
2023/03/03 04:34:34;;;;;;;52.10;27.90;;;;;;;0.73;81.73;99322.28;107989;1307;22435;-41
2023/03/03 04:36:59;;;;;;;52.90;26.30;;;;;;;0.78;81.43;99318.75;107981;1307;23366;-41
2023/03/03 04:39:26;;;;;;;53.70;25.50;;;;;;;0.81;81.18;99320.61;108022;1307;22399;-41
2023/03/03 04:41:51;;;;;;;60.20;27.70;;;;;;;0.79;81.14;99329.44;107991;1307;22289;-42
2023/03/03 04:44:16;;;;;;;57.20;27.10;;;;;;;0.80;81.18;99332.52;108010;1307;22235;-41
2023/03/03 04:46:41;;;;;;;54.50;27.40;;;;;;;0.85;81.29;99336.26;108020;1307;22455;-41
2023/03/03 04:49:07;;;;;;;56.80;26.90;;;;;;;0.87;81.14;99331.73;108006;1307;22558;-41
2023/03/03 04:51:33;;;;;;;53.20;26.60;;;;;;;0.90;80.88;99324.61;107990;1307;22414;-41
2023/03/03 04:53:59;;;;;;;60.80;27.60;;;;;;;0.84;81.03;99323.31;108011;1307;22228;-41
2023/03/03 04:56:24;;;;;;;57.70;27.40;;;;;;;0.86;80.94;99317.74;108018;1307;22987;-41
2023/03/03 04:58:49;;;;;;;59.70;28.30;;;;;;;0.84;80.82;99314.68;108002;1307;22223;-41
2023/03/03 05:01:15;;;;;;;56.20;27.20;;;;;;;0.75;81.45;99317.58;108016;1307;22239;-41
2023/03/03 05:03:40;;;;;;;59.60;27.30;;;;;;;0.73;81.49;99323.13;108027;1307;22314;-41
2023/03/03 05:06:06;;;;;;;51.30;25.90;;;;;;;0.75;81.31;99326.55;107989;1307;22240;-40
2023/03/03 05:08:31;;;;;;;59.60;27.50;;;;;;;0.71;81.82;99335.23;108009;1307;22209;-41
2023/03/03 05:10:58;;;;;;;56.50;28.00;;;;;;;0.69;82.01;99338.89;107993;1307;22484;-41
2023/03/03 05:13:25;;;;;;;55.50;28.80;;;;;;;0.67;82.27;99338.06;108007;1307;22240;-40
2023/03/03 05:15:54;;;;;;;54.50;27.80;;;;;;;0.67;81.73;99334.61;108005;1307;22971;-41
2023/03/03 05:18:20;;;;;;;57.40;28.30;;;;;;;0.62;82.07;99335.54;108020;1307;22403;-40
2023/03/03 05:20:45;;;;;;;60.70;27.40;;;;;;;0.64;82.11;99331.88;108017;1307;22420;-41
2023/03/03 05:23:11;;;;;;;65.10;29.30;;;;;;;0.62;81.52;99333.65;108000;1307;23126;-41
2023/03/03 05:25:36;;;;;;;62.90;29.90;;;;;;;0.59;81.84;99330.93;108011;1307;22412;-41
2023/03/03 05:28:03;;;;;;;65.60;31.20;;;;;;;0.54;82.67;99338.07;108028;1307;22472;-41
2023/03/03 05:30:28;;;;;;;63.20;29.90;;;;;;;0.58;82.77;99337.50;108002;1307;22399;-41
2023/03/03 05:32:54;;;;;;;65.00;30.40;;;;;;;0.57;83.09;99341.31;108004;1307;22388;-41
2023/03/03 05:35:19;;;;;;;64.40;31.00;;;;;;;0.59;83.43;99344.55;107999;1307;22239;-41
2023/03/03 11:45:57;;;;;;;80.30;32.60;;;;;;;1.81;84.26;99338.93;107030;1303;545133;-43
2023/03/03 11:48:50;;;;;;;72.40;29.60;;;;;;;1.83;84.16;99338.89;107383;1312;22501;-41
2023/03/03 11:51:31;;;;;;;75.90;29.70;;;;;;;1.81;84.48;99342.40;107394;1299;22293;-41
2023/03/03 11:54:33;;;;;;;85.60;29.40;;;;;;;1.76;84.65;99343.00;107270;1311;22295;-43
2023/03/03 11:57:31;;;;;;;72.30;29.20;;;;;;;1.77;84.62;99342.29;107403;1305;22327;-46
2023/03/03 12:00:19;;;;;;;70.70;30.30;;;;;;;1.78;84.36;99346.43;107323;1310;258895;-41
2023/03/03 12:03:09;;;;;;;73.40;29.50;;;;;;;1.74;84.25;99343.91;107614;1309;22324;-40
2023/03/03 12:06:02;;;;;;;67.50;28.60;;;;;;;1.68;84.31;99344.20;107683;1296;22406;-40
2023/03/03 12:08:47;;;;;;;74.00;29.90;;;;;;;1.61;84.33;99340.52;107565;1305;23224;-40
2023/03/03 12:11:42;;;;;;;67.80;28.00;;;;;;;1.56;84.47;99337.48;107635;1310;23194;-41
2023/03/03 12:14:45;;;;;;;71.00;28.90;;;;;;;1.46;85.20;99336.80;107405;1303;22441;-41
2023/03/03 12:17:18;;;;;;;60.60;26.00;;;;;;;1.47;85.21;99340.95;107960;1303;23142;-41
2023/03/03 12:19:59;;;;;;;60.90;25.20;;;;;;;1.41;85.43;99335.15;107970;1302;23164;-41
2023/03/03 12:22:41;;;;;;;59.60;26.10;;;;;;;1.46;85.17;99335.25;107775;1307;22244;-40
2023/03/03 12:25:31;;;;;;;60.80;26.70;;;;;;;1.48;84.78;99334.87;107964;1307;22320;-41
2023/03/03 12:28:23;;;;;;;60.60;26.60;;;;;;;1.43;84.75;99330.98;107978;1302;22409;-41
2023/03/03 12:31:19;;;;;;;59.90;26.00;;;;;;;1.43;84.95;99320.96;107976;1299;22400;-39
2023/03/03 12:33:55;;;;;;;60.70;26.40;;;;;;;1.45;85.27;99319.05;107941;1307;23226;-41
2023/03/03 12:36:35;;;;;;;57.10;24.60;;;;;;;1.49;85.29;99320.17;107844;1307;22247;-41
2023/03/03 12:39:42;;;;;;;56.70;24.30;;;;;;;1.47;85.21;99319.67;107966;1302;22484;-41
2023/03/03 12:42:41;;;;;;;50.70;24.00;;;;;;;1.37;86.13;99314.33;107975;1307;22426;-40
2023/03/03 12:45:38;;;;;;;60.00;25.40;;;;;;;1.45;85.85;99325.08;107972;1307;23379;-39
2023/03/03 12:48:13;;;;;;;58.20;26.00;;;;;;;1.43;85.36;99328.21;108012;1307;22428;-40
2023/03/03 12:50:58;;;;;;;54.70;25.70;;;;;;;1.43;85.68;99324.60;107968;1285;22556;-39
2023/03/03 12:53:28;;;;;;;47.80;21.70;;;;;;;1.50;85.54;99323.59;107903;1301;22417;-39
2023/03/03 12:56:08;;;;;;;53.20;24.40;;;;;;;1.53;85.18;99324.92;107917;1304;22609;-40
2023/03/03 12:58:55;;;;;;;53.50;24.00;;;;;;;1.48;84.79;99322.60;107870;1304;22241;-39
2023/03/03 13:01:47;;;;;;;58.80;25.50;;;;;;;1.44;85.03;99326.48;107873;1307;23189;-41
2023/03/03 13:04:39;;;;;;;50.60;21.80;;;;;;;1.36;85.32;99326.08;107799;1307;22212;-40
2023/03/03 13:07:28;;;;;;;54.20;24.50;;;;;;;1.34;86.00;99322.15;107888;1307;22599;-40
2023/03/03 13:10:23;;;;;;;49.70;23.00;;;;;;;1.33;85.74;99320.79;107963;1302;23292;-39
2023/03/03 13:12:51;;;;;;;49.80;22.90;;;;;;;1.27;85.89;99318.66;107820;1307;22402;-40
2023/03/03 13:15:31;;;;;;;50.70;22.40;;;;;;;1.27;86.32;99309.84;107868;1301;22354;-40
2023/03/03 13:18:31;;;;;;;64.50;30.50;;;;;;;1.29;86.53;99304.45;107884;1307;22208;-40
2023/03/03 13:21:10;;;;;;;51.50;23.30;;;;;;;1.34;86.63;99301.43;107607;1307;22430;-41
2023/03/03 13:23:42;;;;;;;49.90;22.70;;;;;;;1.37;86.22;99305.02;107902;1307;22429;-42
2023/03/03 13:26:16;;;;;;;45.20;21.20;;;;;;;1.38;85.92;99303.09;107737;1302;22486;-40
2023/03/03 13:29:03;;;;;;;50.10;22.60;;;;;;;1.42;85.58;99306.83;107876;1307;22240;-40
2023/03/03 13:31:33;;;;;;;53.00;24.80;;;;;;;1.38;85.87;99305.67;107913;1307;22480;-39
2023/03/03 13:34:00;;;;;;;47.30;22.00;;;;;;;1.42;85.31;99301.63;107796;1299;22245;-40
2023/03/03 13:36:39;;;;;;;58.50;25.70;;;;;;;1.36;85.45;99295.52;107906;1307;23072;-40
2023/03/03 13:39:22;;;;;;;58.30;24.40;;;;;;;1.32;85.99;99294.89;107879;1302;23358;-40
2023/03/03 13:41:59;;;;;;;72.80;29.00;;;;;;;1.30;86.03;99309.62;107880;1307;22253;-40
2023/03/03 13:44:24;;;;;;;;;;;;;;;1.20;86.18;99304.09;107883;1307;22590;-42
2023/03/03 13:47:05;;;;;;;52.10;22.70;;;;;;;1.12;86.94;99296.10;107882;1302;23293;-40
2023/03/03 13:49:30;;;;;;;56.50;25.30;;;;;;;1.05;87.17;99301.05;107910;1302;23021;-41
2023/03/03 13:52:06;;;;;;;50.90;23.60;;;;;;;0.94;87.58;99300.89;107897;1302;22847;-40
2023/03/03 13:54:56;;;;;;;57.00;22.80;;;;;;;0.97;87.84;99297.04;107901;1301;23178;-40
2023/03/03 13:57:53;;;;;;;56.10;25.00;;;;;;;1.00;87.61;99300.81;107852;1308;22245;-40
2023/03/03 14:00:35;;;;;;;45.80;21.70;;;;;;;0.98;87.15;99302.03;107817;1308;22241;-40
2023/03/03 14:03:34;;;;;;;46.40;21.00;;;;;;;0.92;87.62;99301.42;107842;1304;22806;-40
2023/03/03 14:06:15;;;;;;;48.60;22.20;;;;;;;0.83;88.40;99298.13;107903;1308;23223;-41
2023/03/03 14:09:22;;;;;;;41.90;20.70;;;;;;;0.93;87.92;99299.35;107819;1302;22598;-41
2023/03/03 14:12:02;;;;;;;43.10;20.50;;;;;;;0.95;87.81;99299.16;107881;1302;22217;-39
2023/03/03 14:14:37;;;;;;;47.70;21.40;;;;;;;0.98;87.53;99297.20;107933;1307;22921;-39
2023/03/03 14:17:28;;;;;;;41.00;21.60;;;;;;;1.00;87.24;99296.14;107991;1307;22243;-40
2023/03/03 14:20:23;;;;;;;41.80;20.90;;;;;;;0.98;87.48;99301.02;107923;1307;22260;-40
2023/03/03 14:22:57;;;;;;;48.30;21.40;;;;;;;0.93;87.62;99301.08;107898;1308;22224;-40
2023/03/03 14:25:23;;;;;;;47.70;21.80;;;;;;;0.94;87.53;99300.89;107904;1308;22211;-40
2023/03/03 14:28:03;;;;;;;41.70;20.80;;;;;;;0.95;87.58;99301.73;107907;1302;22232;-40
2023/03/03 14:30:37;;;;;;;53.10;23.50;;;;;;;0.89;87.66;99298.73;107691;1308;22440;-40
2023/03/03 14:33:13;;;;;;;50.10;22.90;;;;;;;0.87;87.62;99293.58;107906;1307;22292;-46
2023/03/03 14:35:40;;;;;;;70.60;30.00;;;;;;;0.90;87.53;99284.55;107905;1307;22235;-40
2023/03/03 14:38:20;;;;;;;51.00;23.70;;;;;;;0.89;87.57;99282.86;107923;1308;22220;-39
2023/03/03 14:40:46;;;;;;;48.90;23.20;;;;;;;0.88;87.87;99284.08;107916;1308;23523;-41
2023/03/03 14:43:24;;;;;;;50.00;22.70;;;;;;;0.88;87.61;99286.48;107890;1308;22410;-41
2023/03/03 14:45:51;;;;;;;54.70;22.20;;;;;;;0.82;87.64;99285.21;107906;1308;22395;-40
2023/03/03 14:48:22;;;;;;;51.70;23.90;;;;;;;0.76;88.31;99286.84;107893;1308;22235;-40
2023/03/03 14:51:22;;;;;;;53.00;22.90;;;;;;;0.76;88.54;99290.12;107857;1308;22960;-40
2023/03/03 14:53:50;;;;;;;51.20;24.60;;;;;;;0.76;88.99;99286.67;107839;1308;22298;-39
2023/03/03 14:56:33;;;;;;;55.10;25.20;;;;;;;0.71;89.41;99284.16;107899;1308;22232;-40
2023/03/03 14:59:20;;;;;;;53.40;25.80;;;;;;;0.74;89.09;99283.25;107893;1308;22299;-40
2023/03/03 15:01:46;;;;;;;62.10;27.80;;;;;;;0.70;89.32;99282.97;107871;1307;22270;-39
2023/03/03 15:04:14;;;;;;;54.30;28.50;;;;;;;0.69;89.62;99277.29;107918;1308;22406;-41
2023/03/03 15:06:47;;;;;;;54.60;24.50;;;;;;;0.75;89.48;99276.68;107914;1308;23002;-41
2023/03/03 15:09:34;;;;;;;51.40;24.00;;;;;;;0.72;89.28;99277.41;107905;1308;23158;-40
2023/03/03 15:12:00;;;;;;;;;;;;;;;0.61;89.69;99271.70;107906;1308;22501;-41
2023/03/03 15:14:36;;;;;;;53.80;27.10;;;;;;;0.61;89.63;99270.35;107915;1305;22388;-41
2023/03/03 15:17:22;;;;;;;49.30;21.80;;;;;;;0.65;89.17;99269.42;107889;1308;23093;-41
2023/03/03 15:20:21;;;;;;;56.10;27.20;;;;;;;0.65;88.71;99269.08;107900;1308;22318;-41
2023/03/03 15:22:52;;;;;;;50.00;23.60;;;;;;;0.56;88.54;99270.76;107920;1308;22244;-40
2023/03/03 15:25:37;;;;;;;40.00;20.40;;;;;;;0.50;88.30;99269.46;107924;1308;23045;-40
2023/03/03 15:28:21;;;;;;;48.30;22.60;;;;;;;0.43;88.58;99261.47;107896;1308;23233;-40
2023/03/03 15:31:14;;;;;;;41.40;21.20;;;;;;;0.47;88.44;99257.77;107909;1302;22376;-40
2023/03/03 15:34:02;;;;;;;41.60;20.90;;;;;;;0.41;88.85;99256.67;107785;1308;22292;-41
2023/03/03 15:36:51;;;;;;;44.00;22.20;;;;;;;0.40;89.28;99252.88;107615;1308;22429;-41
2023/03/03 15:39:33;;;;;;;49.00;23.60;;;;;;;0.42;89.55;99249.23;107899;1307;22473;-41
2023/03/03 15:42:13;;;;;;;53.20;23.40;;;;;;;0.46;89.45;99250.21;107996;1299;22266;-43
2023/03/03 15:45:24;;;;;;;44.50;23.70;;;;;;;0.46;89.70;99250.04;108006;1307;23047;-41
2023/03/03 15:48:12;;;;;;;55.70;28.70;;;;;;;0.46;90.07;99253.83;108003;1307;23570;-41
2023/03/03 15:51:03;;;;;;;51.80;26.70;;;;;;;0.47;90.17;99253.65;108011;1307;22422;-40
2023/03/03 15:54:01;;;;;;;52.10;23.80;;;;;;;0.46;90.06;99257.63;107154;1315;23023;-40
2023/03/03 15:56:52;;;;;;;40.10;21.20;;;;;;;0.46;89.85;99263.49;107071;1315;22387;-40
2023/03/03 15:59:29;;;;;;;38.80;20.70;;;;;;;0.45;89.03;99264.20;107147;1315;22284;-41
2023/03/03 16:02:14;;;;;;;39.00;18.90;;;;;;;0.48;88.38;99259.16;107156;1315;22280;-40
2023/03/03 16:05:14;;;;;;;35.20;18.80;;;;;;;0.46;87.83;99259.19;107148;1308;22710;-40
2023/03/03 16:08:24;;;;;;;44.50;19.40;;;;;;;0.41;87.82;99260.30;107124;1313;22304;-40
2023/03/03 16:11:08;;;;;;;40.20;19.30;;;;;;;0.33;87.84;99262.11;106700;1320;22289;-40
2023/03/03 16:14:11;;;;;;;31.30;16.90;;;;;;;0.29;87.70;99270.45;106676;1317;22298;-40
2023/03/03 16:17:06;;;;;;;37.00;18.30;;;;;;;0.20;87.71;99274.02;106686;1320;22290;-40
2023/03/03 16:19:41;;;;;;;33.70;17.80;;;;;;;0.16;87.32;99271.16;106567;1321;22342;-40
2023/03/03 16:22:09;;;;;;;31.90;18.00;;;;;;;0.12;87.49;99272.23;106727;1321;22983;-41
2023/03/03 16:24:46;;;;;;;37.20;18.20;;;;;;;0.07;87.49;99265.58;106684;1320;22275;-41
2023/03/03 16:27:38;;;;;;;43.60;19.80;;;;;;;0.07;87.70;99270.08;106704;1316;22269;-40
2023/03/03 16:30:25;;;;;;;38.10;18.80;;;;;;;-0.01;87.95;99280.34;106847;1315;23264;-41
2023/03/03 16:33:05;;;;;;;34.70;18.20;;;;;;;-0.00;87.91;99277.56;107155;1315;22319;-40
2023/03/03 16:35:35;;;;;;;38.00;19.00;;;;;;;0.01;87.90;99275.48;107155;1315;22280;-40
2023/03/03 16:38:08;;;;;;;48.70;24.80;;;;;;;0.02;87.72;99270.82;107169;1315;22278;-40
2023/03/03 16:40:54;;;;;;;39.30;20.80;;;;;;;0.02;88.10;99272.88;107149;1315;23037;-40
2023/03/03 16:43:30;;;;;;;42.60;22.50;;;;;;;0.06;88.60;99268.18;108010;1307;23068;-41
2023/03/03 16:46:01;;;;;;;45.90;21.60;;;;;;;0.17;88.33;99263.04;107994;1299;22470;-40
2023/03/03 16:48:43;;;;;;;42.90;20.70;;;;;;;0.25;88.09;99260.85;107997;1307;22235;-41
2023/03/03 16:51:27;;;;;;;40.40;19.10;;;;;;;0.27;87.82;99263.60;108016;1302;22335;-40
2023/03/03 16:54:08;;;;;;;36.90;19.90;;;;;;;0.27;87.49;99266.17;108025;1305;22858;-41
2023/03/03 16:56:43;;;;;;;54.40;26.50;;;;;;;0.31;87.16;99269.93;108014;1307;22268;-41
2023/03/03 16:59:33;;;;;;;43.30;20.80;;;;;;;0.31;86.70;99271.28;108019;1307;22247;-41
2023/03/03 17:02:23;;;;;;;42.50;22.10;;;;;;;0.25;86.66;99267.59;107995;1307;22978;-41
2023/03/03 17:05:04;;;;;;;38.90;19.80;;;;;;;0.23;86.68;99259.33;108018;1307;23239;-40
2023/03/03 17:07:38;;;;;;;42.10;18.50;;;;;;;0.21;86.26;99258.84;108040;1307;22405;-42
2023/03/03 17:10:15;;;;;;;41.40;19.60;;;;;;;0.18;86.14;99260.43;108007;1307;22228;-42
2023/03/03 17:13:14;;;;;;;36.20;19.00;;;;;;;0.20;85.88;99266.27;108028;1307;22369;-41
2023/03/03 17:15:52;;;;;;;34.30;19.30;;;;;;;0.14;85.79;99265.67;108028;1307;22283;-40
2023/03/03 17:18:35;;;;;;;36.80;19.90;;;;;;;0.08;85.89;99262.98;108025;1307;22384;-40
2023/03/03 17:21:01;;;;;;;45.60;21.80;;;;;;;0.01;86.29;99261.36;108028;1307;22395;-40
2023/03/03 17:24:08;;;;;;;47.50;24.70;;;;;;;0.05;86.41;99258.37;108027;1307;23616;-40
2023/03/03 17:26:52;;;;;;;58.10;30.50;;;;;;;0.13;86.24;99257.91;107158;1315;22245;-41
2023/03/03 17:29:28;;;;;;;50.80;24.70;;;;;;;0.15;86.71;99263.23;107161;1315;22263;-40
2023/03/03 17:32:29;;;;;;;45.40;23.70;;;;;;;0.19;86.86;99268.00;107163;1315;22280;-40
2023/03/03 17:35:25;;;;;;;47.60;25.30;;;;;;;0.28;86.51;99269.96;106725;1320;22330;-40
2023/03/03 17:38:28;;;;;;;49.80;23.20;;;;;;;0.34;86.37;99273.15;106732;1320;22269;-41
2023/03/03 17:40:59;;;;;;;47.70;24.10;;;;;;;0.32;86.48;99280.58;106739;1320;22282;-40
2023/03/03 17:43:45;;;;;;;47.30;24.20;;;;;;;0.30;86.67;99277.00;106724;1319;22329;-40
2023/03/03 17:46:43;;;;;;;43.40;22.20;;;;;;;0.29;86.95;99279.42;106692;1320;22283;-41
2023/03/03 17:49:40;;;;;;;43.40;22.50;;;;;;;0.26;86.77;99277.39;106710;1320;22267;-40
2023/03/03 17:52:23;;;;;;;40.30;20.90;;;;;;;0.19;86.81;99273.00;106726;1320;22360;-40
2023/03/03 17:55:13;;;;;;;34.90;18.70;;;;;;;0.15;86.95;99275.48;106718;1320;22309;-40
2023/03/03 17:57:51;;;;;;;37.80;19.70;;;;;;;0.06;86.83;99279.90;106740;1320;22448;-40
2023/03/03 18:00:50;;;;;;;40.30;20.50;;;;;;;0.05;86.83;99278.53;106746;1320;22336;-40
2023/03/03 18:03:33;;;;;;;42.90;22.00;;;;;;;0.04;86.74;99275.62;106901;1315;22482;-40
2023/03/03 18:06:40;;;;;;;46.60;20.90;;;;;;;0.07;86.63;99268.69;107136;1315;22283;-40
2023/03/03 18:09:20;;;;;;;40.90;21.60;;;;;;;0.11;86.48;99271.38;107172;1315;22955;-40
2023/03/03 18:12:10;;;;;;;43.70;20.70;;;;;;;0.07;86.56;99272.48;107600;1307;22361;-41
2023/03/03 18:15:01;;;;;;;42.40;22.60;;;;;;;0.06;86.63;99268.36;108016;1307;22229;-41
2023/03/03 18:17:33;;;;;;;48.00;23.60;;;;;;;0.03;86.72;99263.74;108032;1307;23013;-40
2023/03/03 18:20:23;;;;;;;45.70;22.70;;;;;;;0.03;86.49;99262.36;107871;1307;22402;-41
2023/03/03 18:22:51;;;;;;;38.20;20.70;;;;;;;0.05;86.30;99254.92;107985;1307;22454;-41
2023/03/03 18:25:19;;;;;;;40.80;21.70;;;;;;;0.03;86.03;99249.78;107810;1307;22386;-40
2023/03/03 18:27:47;;;;;;;39.90;21.70;;;;;;;-0.01;86.45;99246.55;108028;1307;23727;-40
2023/03/03 18:30:25;;;;;;;43.20;21.40;;;;;;;0.04;86.20;99248.38;108017;1307;22687;-40
2023/03/03 18:32:56;;;;;;;45.50;22.90;;;;;;;0.05;86.40;99245.45;108013;1307;23107;-39
2023/03/03 18:35:30;;;;;;;42.80;21.60;;;;;;;0.08;86.43;99246.61;107990;1301;23013;-41
2023/03/03 18:37:56;;;;;;;46.90;24.90;;;;;;;0.09;86.22;99244.70;108035;1307;22949;-40
2023/03/03 18:40:31;;;;;;;41.10;22.00;;;;;;;0.06;86.64;99242.66;108029;1307;22411;-41
2023/03/03 18:42:57;;;;;;;50.00;24.40;;;;;;;0.12;86.23;99238.28;108015;1307;22150;-39
2023/03/03 18:45:24;;;;;;;46.10;22.70;;;;;;;0.02;87.00;99237.04;108006;1307;22402;-40
2023/03/03 18:48:12;;;;;;;47.20;23.10;;;;;;;0.07;87.15;99238.52;108031;1307;22405;-41
2023/03/03 18:50:40;;;;;;;47.70;23.50;;;;;;;0.14;86.88;99232.73;108043;1307;22281;-42
2023/03/03 18:53:23;;;;;;;51.40;24.00;;;;;;;0.17;86.78;99227.52;108041;1307;22401;-40
2023/03/03 18:55:51;;;;;;;47.00;23.10;;;;;;;0.22;86.96;99228.48;108015;1307;22226;-40
2023/03/03 18:58:17;;;;;;;50.10;23.50;;;;;;;0.23;87.00;99228.11;108028;1307;22230;-40
2023/03/03 19:00:58;;;;;;;48.30;22.90;;;;;;;0.25;86.91;99227.40;108006;1307;22842;-41
2023/03/03 19:03:48;;;;;;;51.70;24.70;;;;;;;0.26;86.98;99234.13;108020;1307;23375;-40
2023/03/03 19:06:50;;;;;;;44.30;23.90;;;;;;;0.25;86.97;99238.45;108014;1307;22237;-41
2023/03/03 19:09:39;;;;;;;48.30;24.50;;;;;;;0.27;86.91;99236.86;108036;1307;22884;-39
2023/03/03 19:12:09;;;;;;;56.70;25.70;;;;;;;0.34;86.69;99232.95;108017;1307;22224;-39
2023/03/03 19:14:39;;;;;;;59.60;28.20;;;;;;;0.41;86.47;99235.95;108018;1307;22174;-40
2023/03/03 19:17:16;;;;;;;48.50;25.30;;;;;;;0.43;86.42;99236.45;108013;1307;22224;-40
2023/03/03 19:20:10;;;;;;;46.40;25.30;;;;;;;0.43;86.66;99237.14;108040;1307;22390;-40
2023/03/03 19:22:45;;;;;;;57.50;26.30;;;;;;;0.38;86.80;99229.63;107802;1307;22228;-40
2023/03/03 19:25:10;;;;;;;51.90;25.30;;;;;;;0.39;86.78;99228.41;108004;1307;23154;-40
2023/03/03 19:27:57;;;;;;;50.90;24.00;;;;;;;0.42;86.52;99226.81;108036;1307;22451;-41
2023/03/03 19:30:34;;;;;;;48.70;25.90;;;;;;;0.38;87.06;99224.29;108028;1307;22201;-40
2023/03/03 19:33:24;;;;;;;49.00;25.40;;;;;;;0.46;86.90;99219.69;108034;1307;22272;-40
2023/03/03 19:36:26;;;;;;;48.00;25.30;;;;;;;0.52;86.59;99217.17;108011;1307;23499;-40
2023/03/03 19:39:03;;;;;;;53.40;25.00;;;;;;;0.49;86.85;99212.20;108027;1307;22943;-41
2023/03/03 19:41:34;;;;;;;47.40;24.00;;;;;;;0.52;86.90;99204.93;108022;1307;22227;-41
2023/03/03 19:44:21;;;;;;;48.80;27.00;;;;;;;0.53;86.72;99198.86;108023;1307;23163;-40
2023/03/03 19:47:11;;;;;;;46.50;24.10;;;;;;;0.57;86.43;99195.87;108023;1307;22433;-41
2023/03/03 19:50:11;;;;;;;48.00;24.60;;;;;;;0.56;86.33;99199.50;108037;1307;22902;-41
2023/03/03 19:52:48;;;;;;;50.50;25.70;;;;;;;0.58;86.47;99186.70;108040;1307;23123;-45
2023/03/03 19:55:33;;;;;;;52.50;24.80;;;;;;;0.61;86.55;99183.73;108009;1307;22273;-42
2023/03/03 19:58:35;;;;;;;47.60;24.60;;;;;;;0.59;86.47;99179.80;108043;1307;23327;-41
2023/03/03 20:01:16;;;;;;;42.90;23.30;;;;;;;0.57;86.75;99175.52;107795;1307;22895;-41
2023/03/03 20:03:58;;;;;;;48.40;24.60;;;;;;;0.56;86.71;99170.88;108019;1307;23058;-41
2023/03/03 20:06:36;;;;;;;48.70;23.60;;;;;;;0.58;86.58;99170.84;108009;1299;22480;-42
2023/03/03 20:09:33;;;;;;;;;;;;;;;0.52;86.93;99160.60;107857;1308;22521;-40
2023/03/03 20:12:28;;;;;;;39.30;20.50;;;;;;;0.50;87.24;99166.66;107165;1315;22343;-41
2023/03/03 20:15:08;;;;;;;40.20;22.20;;;;;;;0.52;87.11;99168.54;107169;1315;22281;-40
2023/03/03 20:17:58;;;;;;;40.90;21.50;;;;;;;0.51;86.92;99165.44;107173;1315;22248;-40
2023/03/03 20:20:24;;;;;;;38.40;21.00;;;;;;;0.53;86.94;99162.81;107154;1315;23022;-41
2023/03/03 20:23:51;;;;;;;38.00;20.20;;;;;;;0.54;87.10;99168.48;107195;1315;22331;-41
2023/03/03 20:26:24;;;;;;;38.60;21.70;;;;;;;0.62;86.52;99174.73;106959;1315;23106;-41
2023/03/03 20:28:58;;;;;;;39.20;21.00;;;;;;;0.60;86.22;99170.29;107175;1315;22301;-42
2023/03/03 20:32:01;;;;;;;44.00;22.50;;;;;;;0.59;86.44;99169.46;107196;1315;22262;-41
2023/03/03 20:34:45;;;;;;;42.70;21.20;;;;;;;0.55;86.60;99161.05;107164;1315;22296;-41
2023/03/03 20:37:20;;;;;;;43.60;20.90;;;;;;;0.54;86.17;99152.45;107185;1315;22470;-41
2023/03/03 20:40:14;;;;;;;42.30;20.60;;;;;;;0.49;86.62;99144.41;107185;1315;22247;-40
2023/03/03 20:42:59;;;;;;;41.50;21.60;;;;;;;0.53;86.55;99138.31;107168;1315;22427;-41
2023/03/03 20:45:49;;;;;;;46.70;22.10;;;;;;;0.53;86.72;99135.23;107173;1315;22439;-41
2023/03/03 20:48:33;;;;;;;39.30;20.80;;;;;;;0.54;86.82;99145.03;107614;1308;22408;-41
2023/03/03 20:51:18;;;;;;;42.40;21.80;;;;;;;0.59;86.22;99141.34;107878;1308;22237;-41
2023/03/03 20:54:14;;;;;;;45.50;22.90;;;;;;;0.53;86.74;99133.15;107840;1308;23391;-41
2023/03/03 20:57:10;;;;;;;44.70;21.50;;;;;;;0.54;86.75;99134.16;107571;1308;22452;-40
2023/03/03 20:59:56;;;;;;;47.20;23.50;;;;;;;0.53;86.58;99130.91;107871;1308;22419;-41
2023/03/03 21:02:49;;;;;;;47.00;24.10;;;;;;;0.53;86.53;99122.28;107848;1308;22266;-41
2023/03/03 21:05:17;;;;;;;52.30;25.40;;;;;;;0.53;86.56;99114.00;107842;1308;22374;-40
2023/03/03 21:07:54;;;;;;;52.20;26.50;;;;;;;0.51;86.72;99110.23;107869;1308;22405;-39
2023/03/03 21:10:23;;;;;;;50.70;25.70;;;;;;;0.49;86.60;99112.35;107864;1308;23125;-42